sensor_id;sensor_type;location;lat;lon;timestamp;P1;durP1;ratioP1;P2;durP2;ratioP2
46613;SDS011;32338;50.430;6.806;2022-11-15T00:01:06;33.30;;;19.20;;
46613;SDS011;32338;50.430;6.806;2022-11-15T00:03:33;30.77;;;20.23;;
46613;SDS011;32338;50.430;6.806;2022-11-15T00:06:02;30.50;;;19.27;;
46613;SDS011;32338;50.430;6.806;2022-11-15T00:08:30;30.35;;;19.35;;
46613;SDS011;32338;50.430;6.806;2022-11-15T00:10:57;28.25;;;18.27;;
46613;SDS011;32338;50.430;6.806;2022-11-15T00:13:26;26.80;;;17.15;;
46613;SDS011;32338;50.430;6.806;2022-11-15T00:15:56;32.05;;;19.30;;
46613;SDS011;32338;50.430;6.806;2022-11-15T00:18:27;25.10;;;18.58;;
46613;SDS011;32338;50.430;6.806;2022-11-15T00:20:54;31.90;;;18.83;;
46613;SDS011;32338;50.430;6.806;2022-11-15T00:23:22;29.55;;;17.77;;
46613;SDS011;32338;50.430;6.806;2022-11-15T00:25:54;29.98;;;17.73;;
46613;SDS011;32338;50.430;6.806;2022-11-15T00:28:22;26.83;;;17.17;;
46613;SDS011;32338;50.430;6.806;2022-11-15T00:30:49;27.52;;;17.95;;
46613;SDS011;32338;50.430;6.806;2022-11-15T00:33:16;25.17;;;15.90;;
46613;SDS011;32338;50.430;6.806;2022-11-15T00:35:43;24.35;;;15.70;;
46613;SDS011;32338;50.430;6.806;2022-11-15T00:38:10;23.75;;;15.20;;
46613;SDS011;32338;50.430;6.806;2022-11-15T00:40:38;19.90;;;14.77;;
46613;SDS011;32338;50.430;6.806;2022-11-15T00:43:04;19.60;;;13.63;;
46613;SDS011;32338;50.430;6.806;2022-11-15T00:45:31;19.33;;;14.13;;
46613;SDS011;32338;50.430;6.806;2022-11-15T00:47:58;19.48;;;13.40;;
46613;SDS011;32338;50.430;6.806;2022-11-15T00:50:25;21.02;;;13.55;;
46613;SDS011;32338;50.430;6.806;2022-11-15T00:52:51;16.70;;;12.25;;
46613;SDS011;32338;50.430;6.806;2022-11-15T00:55:18;15.88;;;11.98;;
46613;SDS011;32338;50.430;6.806;2022-11-15T00:57:47;14.77;;;10.48;;
46613;SDS011;32338;50.430;6.806;2022-11-15T01:00:14;19.40;;;10.80;;
46613;SDS011;32338;50.430;6.806;2022-11-15T01:02:40;17.60;;;11.35;;
46613;SDS011;32338;50.430;6.806;2022-11-15T01:05:07;13.18;;;9.27;;
46613;SDS011;32338;50.430;6.806;2022-11-15T01:07:34;16.55;;;9.82;;
46613;SDS011;32338;50.430;6.806;2022-11-15T01:10:01;17.52;;;9.57;;
46613;SDS011;32338;50.430;6.806;2022-11-15T01:12:28;14.88;;;8.63;;
46613;SDS011;32338;50.430;6.806;2022-11-15T01:14:56;12.45;;;8.40;;
46613;SDS011;32338;50.430;6.806;2022-11-15T01:17:23;12.55;;;8.00;;
46613;SDS011;32338;50.430;6.806;2022-11-15T01:19:50;9.93;;;8.20;;
46613;SDS011;32338;50.430;6.806;2022-11-15T01:22:16;11.95;;;8.80;;
46613;SDS011;32338;50.430;6.806;2022-11-15T01:24:43;11.13;;;8.10;;
46613;SDS011;32338;50.430;6.806;2022-11-15T01:27:10;12.95;;;9.07;;
46613;SDS011;32338;50.430;6.806;2022-11-15T01:29:37;10.55;;;8.63;;
46613;SDS011;32338;50.430;6.806;2022-11-15T01:32:05;9.90;;;7.90;;
46613;SDS011;32338;50.430;6.806;2022-11-15T01:34:32;9.98;;;7.13;;
46613;SDS011;32338;50.430;6.806;2022-11-15T01:36:58;13.23;;;8.48;;
46613;SDS011;32338;50.430;6.806;2022-11-15T01:39:26;11.63;;;8.45;;
46613;SDS011;32338;50.430;6.806;2022-11-15T01:41:54;10.77;;;8.70;;
46613;SDS011;32338;50.430;6.806;2022-11-15T01:44:41;12.85;;;8.50;;
46613;SDS011;32338;50.430;6.806;2022-11-15T01:47:12;13.40;;;8.55;;
46613;SDS011;32338;50.430;6.806;2022-11-15T01:49:47;9.90;;;7.60;;
46613;SDS011;32338;50.430;6.806;2022-11-15T01:52:20;8.70;;;7.47;;
46613;SDS011;32338;50.430;6.806;2022-11-15T01:54:50;9.18;;;7.20;;
46613;SDS011;32338;50.430;6.806;2022-11-15T01:57:23;10.55;;;8.07;;
46613;SDS011;32338;50.430;6.806;2022-11-15T01:59:49;8.50;;;7.30;;
46613;SDS011;32338;50.430;6.806;2022-11-15T02:02:18;12.40;;;7.22;;
46613;SDS011;32338;50.430;6.806;2022-11-15T02:04:47;7.05;;;6.30;;
46613;SDS011;32338;50.430;6.806;2022-11-15T02:07:17;6.35;;;5.80;;
46613;SDS011;32338;50.430;6.806;2022-11-15T02:09:46;6.40;;;5.80;;
46613;SDS011;32338;50.430;6.806;2022-11-15T02:12:15;6.05;;;5.35;;
46613;SDS011;32338;50.430;6.806;2022-11-15T02:14:46;7.20;;;5.57;;
46613;SDS011;32338;50.430;6.806;2022-11-15T02:17:29;6.72;;;5.05;;
46613;SDS011;32338;50.430;6.806;2022-11-15T02:23:17;7.28;;;5.18;;
46613;SDS011;32338;50.430;6.806;2022-11-15T02:26:13;7.15;;;4.80;;
46613;SDS011;32338;50.430;6.806;2022-11-15T02:29:03;6.57;;;5.15;;
46613;SDS011;32338;50.430;6.806;2022-11-15T02:31:39;7.20;;;6.50;;
46613;SDS011;32338;50.430;6.806;2022-11-15T02:34:16;9.38;;;6.40;;
46613;SDS011;32338;50.430;6.806;2022-11-15T02:36:55;8.50;;;6.53;;
46613;SDS011;32338;50.430;6.806;2022-11-15T02:39:31;8.40;;;7.07;;
46613;SDS011;32338;50.430;6.806;2022-11-15T02:42:07;9.68;;;7.30;;
46613;SDS011;32338;50.430;6.806;2022-11-15T02:44:58;10.30;;;7.88;;
46613;SDS011;32338;50.430;6.806;2022-11-15T02:47:32;8.98;;;8.02;;
46613;SDS011;32338;50.430;6.806;2022-11-15T02:50:04;9.98;;;7.38;;
46613;SDS011;32338;50.430;6.806;2022-11-15T02:52:35;8.57;;;7.78;;
46613;SDS011;32338;50.430;6.806;2022-11-15T02:55:01;10.68;;;8.13;;
46613;SDS011;32338;50.430;6.806;2022-11-15T02:57:34;9.40;;;7.32;;
46613;SDS011;32338;50.430;6.806;2022-11-15T03:00:11;9.35;;;7.95;;
46613;SDS011;32338;50.430;6.806;2022-11-15T03:02:46;10.07;;;9.07;;
46613;SDS011;32338;50.430;6.806;2022-11-15T03:05:30;11.63;;;8.80;;
46613;SDS011;32338;50.430;6.806;2022-11-15T03:08:03;11.52;;;9.25;;
46613;SDS011;32338;50.430;6.806;2022-11-15T03:10:44;10.20;;;8.73;;
46613;SDS011;32338;50.430;6.806;2022-11-15T03:13:21;10.30;;;8.05;;
46613;SDS011;32338;50.430;6.806;2022-11-15T03:15:56;9.40;;;8.40;;
46613;SDS011;32338;50.430;6.806;2022-11-15T03:18:33;9.82;;;7.55;;
46613;SDS011;32338;50.430;6.806;2022-11-15T03:21:04;9.27;;;6.93;;
46613;SDS011;32338;50.430;6.806;2022-11-15T03:23:33;8.35;;;7.28;;
46613;SDS011;32338;50.430;6.806;2022-11-15T03:26:03;6.93;;;6.32;;
46613;SDS011;32338;50.430;6.806;2022-11-15T03:28:34;6.88;;;6.28;;
46613;SDS011;32338;50.430;6.806;2022-11-15T03:31:03;6.40;;;5.80;;
46613;SDS011;32338;50.430;6.806;2022-11-15T03:33:54;6.43;;;5.55;;
46613;SDS011;32338;50.430;6.806;2022-11-15T03:36:23;6.53;;;5.45;;
46613;SDS011;32338;50.430;6.806;2022-11-15T03:38:51;6.75;;;5.03;;
46613;SDS011;32338;50.430;6.806;2022-11-15T03:41:21;6.32;;;5.22;;
46613;SDS011;32338;50.430;6.806;2022-11-15T03:43:52;5.10;;;4.63;;
46613;SDS011;32338;50.430;6.806;2022-11-15T03:46:24;6.30;;;4.28;;
46613;SDS011;32338;50.430;6.806;2022-11-15T03:49:03;6.38;;;4.53;;
46613;SDS011;32338;50.430;6.806;2022-11-15T03:51:32;5.13;;;4.38;;
46613;SDS011;32338;50.430;6.806;2022-11-15T03:53:59;4.35;;;4.00;;
46613;SDS011;32338;50.430;6.806;2022-11-15T03:56:29;6.72;;;4.00;;
46613;SDS011;32338;50.430;6.806;2022-11-15T03:58:56;5.07;;;4.13;;
46613;SDS011;32338;50.430;6.806;2022-11-15T04:01:22;10.40;;;3.85;;
46613;SDS011;32338;50.430;6.806;2022-11-15T04:03:49;3.95;;;3.55;;
46613;SDS011;32338;50.430;6.806;2022-11-15T04:06:17;3.83;;;3.30;;
46613;SDS011;32338;50.430;6.806;2022-11-15T04:08:43;5.25;;;2.85;;
46613;SDS011;32338;50.430;6.806;2022-11-15T04:11:10;3.40;;;3.10;;
46613;SDS011;32338;50.430;6.806;2022-11-15T04:13:37;3.00;;;2.60;;
46613;SDS011;32338;50.430;6.806;2022-11-15T04:16:03;2.45;;;2.20;;
46613;SDS011;32338;50.430;6.806;2022-11-15T04:18:30;2.53;;;2.33;;
46613;SDS011;32338;50.430;6.806;2022-11-15T04:20:56;4.13;;;1.88;;
46613;SDS011;32338;50.430;6.806;2022-11-15T04:23:42;2.47;;;1.90;;
46613;SDS011;32338;50.430;6.806;2022-11-15T04:26:25;2.58;;;2.38;;
46613;SDS011;32338;50.430;6.806;2022-11-15T04:28:55;2.30;;;2.10;;
46613;SDS011;32338;50.430;6.806;2022-11-15T04:31:47;2.60;;;1.70;;
46613;SDS011;32338;50.430;6.806;2022-11-15T04:34:14;2.60;;;2.17;;
46613;SDS011;32338;50.430;6.806;2022-11-15T04:36:40;3.53;;;1.83;;
46613;SDS011;32338;50.430;6.806;2022-11-15T04:39:26;3.75;;;1.55;;
46613;SDS011;32338;50.430;6.806;2022-11-15T04:41:52;2.55;;;1.65;;
46613;SDS011;32338;50.430;6.806;2022-11-15T04:44:19;2.22;;;1.90;;
46613;SDS011;32338;50.430;6.806;2022-11-15T04:46:46;3.47;;;2.20;;
46613;SDS011;32338;50.430;6.806;2022-11-15T04:49:13;2.50;;;2.30;;
46613;SDS011;32338;50.430;6.806;2022-11-15T04:51:39;2.45;;;2.25;;
46613;SDS011;32338;50.430;6.806;2022-11-15T04:54:06;2.60;;;2.17;;
46613;SDS011;32338;50.430;6.806;2022-11-15T04:56:34;2.15;;;1.75;;
46613;SDS011;32338;50.430;6.806;2022-11-15T04:59:01;2.05;;;1.88;;
46613;SDS011;32338;50.430;6.806;2022-11-15T05:01:28;4.30;;;2.00;;
46613;SDS011;32338;50.430;6.806;2022-11-15T05:03:54;2.80;;;1.90;;
46613;SDS011;32338;50.430;6.806;2022-11-15T05:11:35;2.25;;;1.98;;
46613;SDS011;32338;50.430;6.806;2022-11-15T05:14:02;3.22;;;2.20;;
46613;SDS011;32338;50.430;6.806;2022-11-15T05:16:29;4.25;;;2.00;;
46613;SDS011;32338;50.430;6.806;2022-11-15T05:18:56;4.72;;;1.90;;
46613;SDS011;32338;50.430;6.806;2022-11-15T05:21:23;1.70;;;1.50;;
46613;SDS011;32338;50.430;6.806;2022-11-15T05:23:50;5.00;;;2.20;;
46613;SDS011;32338;50.430;6.806;2022-11-15T05:26:17;2.58;;;1.80;;
46613;SDS011;32338;50.430;6.806;2022-11-15T05:28:46;1.60;;;1.50;;
46613;SDS011;32338;50.430;6.806;2022-11-15T05:31:13;3.42;;;1.92;;
46613;SDS011;32338;50.430;6.806;2022-11-15T05:33:41;4.97;;;1.85;;
46613;SDS011;32338;50.430;6.806;2022-11-15T05:36:09;2.47;;;1.80;;
46613;SDS011;32338;50.430;6.806;2022-11-15T05:38:42;3.28;;;1.77;;
46613;SDS011;32338;50.430;6.806;2022-11-15T05:41:09;1.98;;;1.70;;
46613;SDS011;32338;50.430;6.806;2022-11-15T05:43:37;2.03;;;1.75;;
46613;SDS011;32338;50.430;6.806;2022-11-15T05:46:07;3.78;;;2.00;;
46613;SDS011;32338;50.430;6.806;2022-11-15T05:48:34;2.60;;;1.50;;
46613;SDS011;32338;50.430;6.806;2022-11-15T05:51:03;1.83;;;1.70;;
46613;SDS011;32338;50.430;6.806;2022-11-15T05:53:32;4.57;;;1.92;;
46613;SDS011;32338;50.430;6.806;2022-11-15T05:56:01;2.30;;;1.95;;
46613;SDS011;32338;50.430;6.806;2022-11-15T05:58:29;3.63;;;2.08;;
46613;SDS011;32338;50.430;6.806;2022-11-15T06:00:57;4.57;;;2.15;;
46613;SDS011;32338;50.430;6.806;2022-11-15T06:03:25;3.22;;;2.30;;
46613;SDS011;32338;50.430;6.806;2022-11-15T06:05:52;2.78;;;2.45;;
46613;SDS011;32338;50.430;6.806;2022-11-15T06:08:19;2.15;;;1.95;;
46613;SDS011;32338;50.430;6.806;2022-11-15T06:10:46;2.97;;;1.73;;
46613;SDS011;32338;50.430;6.806;2022-11-15T06:13:12;2.35;;;1.95;;
46613;SDS011;32338;50.430;6.806;2022-11-15T06:15:39;3.80;;;1.88;;
46613;SDS011;32338;50.430;6.806;2022-11-15T06:18:06;2.05;;;1.50;;
46613;SDS011;32338;50.430;6.806;2022-11-15T06:20:34;3.92;;;2.25;;
46613;SDS011;32338;50.430;6.806;2022-11-15T06:23:01;2.20;;;1.75;;
46613;SDS011;32338;50.430;6.806;2022-11-15T06:25:29;3.58;;;1.65;;
46613;SDS011;32338;50.430;6.806;2022-11-15T06:27:57;2.13;;;1.70;;
46613;SDS011;32338;50.430;6.806;2022-11-15T06:30:25;1.67;;;1.55;;
46613;SDS011;32338;50.430;6.806;2022-11-15T06:32:57;5.65;;;1.65;;
46613;SDS011;32338;50.430;6.806;2022-11-15T06:35:25;2.35;;;1.65;;
46613;SDS011;32338;50.430;6.806;2022-11-15T06:37:53;4.57;;;1.65;;
46613;SDS011;32338;50.430;6.806;2022-11-15T06:40:20;2.50;;;1.80;;
46613;SDS011;32338;50.430;6.806;2022-11-15T06:42:47;2.58;;;1.50;;
46613;SDS011;32338;50.430;6.806;2022-11-15T06:45:13;4.55;;;1.30;;
46613;SDS011;32338;50.430;6.806;2022-11-15T06:47:46;4.93;;;1.20;;
46613;SDS011;32338;50.430;6.806;2022-11-15T06:50:13;1.67;;;1.58;;
46613;SDS011;32338;50.430;6.806;2022-11-15T06:52:40;1.33;;;1.23;;
46613;SDS011;32338;50.430;6.806;2022-11-15T06:55:09;5.15;;;1.33;;
46613;SDS011;32338;50.430;6.806;2022-11-15T06:57:36;1.70;;;1.30;;
46613;SDS011;32338;50.430;6.806;2022-11-15T07:00:04;5.55;;;1.60;;
46613;SDS011;32338;50.430;6.806;2022-11-15T07:02:31;4.60;;;1.20;;
46613;SDS011;32338;50.430;6.806;2022-11-15T07:04:58;1.70;;;1.23;;
46613;SDS011;32338;50.430;6.806;2022-11-15T07:07:25;1.17;;;1.00;;
46613;SDS011;32338;50.430;6.806;2022-11-15T07:09:51;4.70;;;1.23;;
46613;SDS011;32338;50.430;6.806;2022-11-15T07:12:20;2.13;;;1.13;;
46613;SDS011;32338;50.430;6.806;2022-11-15T07:14:46;1.38;;;1.20;;
46613;SDS011;32338;50.430;6.806;2022-11-15T07:17:13;3.13;;;1.10;;
46613;SDS011;32338;50.430;6.806;2022-11-15T07:19:39;2.10;;;1.40;;
46613;SDS011;32338;50.430;6.806;2022-11-15T07:22:06;4.47;;;1.33;;
46613;SDS011;32338;50.430;6.806;2022-11-15T07:24:33;1.23;;;1.00;;
46613;SDS011;32338;50.430;6.806;2022-11-15T07:26:59;3.28;;;1.35;;
46613;SDS011;32338;50.430;6.806;2022-11-15T07:29:27;2.03;;;1.10;;
46613;SDS011;32338;50.430;6.806;2022-11-15T07:31:54;6.70;;;1.30;;
46613;SDS011;32338;50.430;6.806;2022-11-15T07:34:21;1.50;;;0.93;;
46613;SDS011;32338;50.430;6.806;2022-11-15T07:36:48;1.40;;;1.00;;
46613;SDS011;32338;50.430;6.806;2022-11-15T07:39:15;3.80;;;1.90;;
46613;SDS011;32338;50.430;6.806;2022-11-15T07:41:42;3.42;;;1.90;;
46613;SDS011;32338;50.430;6.806;2022-11-15T07:44:09;1.88;;;1.30;;
46613;SDS011;32338;50.430;6.806;2022-11-15T07:46:37;4.38;;;1.50;;
46613;SDS011;32338;50.430;6.806;2022-11-15T07:49:04;3.33;;;1.20;;
46613;SDS011;32338;50.430;6.806;2022-11-15T07:51:31;2.70;;;0.90;;
46613;SDS011;32338;50.430;6.806;2022-11-15T07:53:58;2.97;;;1.20;;
46613;SDS011;32338;50.430;6.806;2022-11-15T07:56:24;2.45;;;1.33;;
46613;SDS011;32338;50.430;6.806;2022-11-15T07:58:51;3.40;;;1.10;;
46613;SDS011;32338;50.430;6.806;2022-11-15T08:01:18;1.45;;;1.00;;
46613;SDS011;32338;50.430;6.806;2022-11-15T08:03:46;2.10;;;1.00;;
46613;SDS011;32338;50.430;6.806;2022-11-15T08:06:13;5.55;;;0.88;;
46613;SDS011;32338;50.430;6.806;2022-11-15T08:08:39;2.72;;;0.77;;
46613;SDS011;32338;50.430;6.806;2022-11-15T08:11:06;1.88;;;1.00;;
46613;SDS011;32338;50.430;6.806;2022-11-15T08:13:33;2.97;;;0.60;;
46613;SDS011;32338;50.430;6.806;2022-11-15T08:15:59;0.95;;;0.70;;
46613;SDS011;32338;50.430;6.806;2022-11-15T08:18:27;1.33;;;0.60;;
46613;SDS011;32338;50.430;6.806;2022-11-15T08:20:59;2.42;;;1.00;;
46613;SDS011;32338;50.430;6.806;2022-11-15T08:23:26;3.28;;;0.80;;
46613;SDS011;32338;50.430;6.806;2022-11-15T08:25:58;3.17;;;0.60;;
46613;SDS011;32338;50.430;6.806;2022-11-15T08:28:26;2.35;;;0.90;;
46613;SDS011;32338;50.430;6.806;2022-11-15T08:30:52;3.63;;;0.77;;
46613;SDS011;32338;50.430;6.806;2022-11-15T08:33:19;1.77;;;1.00;;
46613;SDS011;32338;50.430;6.806;2022-11-15T08:35:46;1.75;;;0.63;;
46613;SDS011;32338;50.430;6.806;2022-11-15T08:38:14;2.75;;;0.68;;
46613;SDS011;32338;50.430;6.806;2022-11-15T08:40:41;3.13;;;0.60;;
46613;SDS011;32338;50.430;6.806;2022-11-15T08:43:08;2.60;;;0.70;;
46613;SDS011;32338;50.430;6.806;2022-11-15T08:45:35;2.47;;;0.65;;
46613;SDS011;32338;50.430;6.806;2022-11-15T08:48:02;2.45;;;0.70;;
46613;SDS011;32338;50.430;6.806;2022-11-15T08:50:29;2.17;;;0.60;;
46613;SDS011;32338;50.430;6.806;2022-11-15T08:52:56;3.25;;;0.88;;
46613;SDS011;32338;50.430;6.806;2022-11-15T08:55:24;1.88;;;0.63;;
46613;SDS011;32338;50.430;6.806;2022-11-15T08:57:51;2.33;;;0.50;;
46613;SDS011;32338;50.430;6.806;2022-11-15T09:00:17;2.53;;;0.50;;
46613;SDS011;32338;50.430;6.806;2022-11-15T09:02:46;2.38;;;0.55;;
46613;SDS011;32338;50.430;6.806;2022-11-15T09:05:13;3.63;;;0.80;;
46613;SDS011;32338;50.430;6.806;2022-11-15T09:07:40;4.35;;;0.90;;
46613;SDS011;32338;50.430;6.806;2022-11-15T09:10:08;1.88;;;0.50;;
46613;SDS011;32338;50.430;6.806;2022-11-15T09:12:38;1.38;;;0.60;;
46613;SDS011;32338;50.430;6.806;2022-11-15T09:15:05;9.27;;;0.70;;
46613;SDS011;32338;50.430;6.806;2022-11-15T09:17:33;2.45;;;0.60;;
46613;SDS011;32338;50.430;6.806;2022-11-15T09:20:00;4.38;;;0.93;;
46613;SDS011;32338;50.430;6.806;2022-11-15T09:22:31;1.60;;;0.50;;
46613;SDS011;32338;50.430;6.806;2022-11-15T09:25:01;5.18;;;0.57;;
46613;SDS011;32338;50.430;6.806;2022-11-15T09:27:28;3.80;;;0.50;;
46613;SDS011;32338;50.430;6.806;2022-11-15T09:29:57;3.50;;;0.47;;
46613;SDS011;32338;50.430;6.806;2022-11-15T09:32:29;3.28;;;0.47;;
46613;SDS011;32338;50.430;6.806;2022-11-15T09:34:56;3.63;;;0.50;;
46613;SDS011;32338;50.430;6.806;2022-11-15T09:37:24;1.33;;;0.50;;
46613;SDS011;32338;50.430;6.806;2022-11-15T09:39:50;3.05;;;0.60;;
46613;SDS011;32338;50.430;6.806;2022-11-15T09:42:23;1.15;;;0.60;;
46613;SDS011;32338;50.430;6.806;2022-11-15T09:45:06;1.85;;;0.50;;
46613;SDS011;32338;50.430;6.806;2022-11-15T09:47:54;2.50;;;0.47;;
46613;SDS011;32338;50.430;6.806;2022-11-15T09:50:31;3.65;;;0.40;;
46613;SDS011;32338;50.430;6.806;2022-11-15T09:53:03;3.75;;;0.30;;
46613;SDS011;32338;50.430;6.806;2022-11-15T09:55:32;3.90;;;0.50;;
46613;SDS011;32338;50.430;6.806;2022-11-15T09:58:18;2.08;;;0.30;;
46613;SDS011;32338;50.430;6.806;2022-11-15T10:00:53;3.10;;;0.57;;
46613;SDS011;32338;50.430;6.806;2022-11-15T10:03:26;2.40;;;0.45;;
46613;SDS011;32338;50.430;6.806;2022-11-15T10:05:56;2.35;;;0.77;;
46613;SDS011;32338;50.430;6.806;2022-11-15T10:08:31;1.27;;;0.50;;
46613;SDS011;32338;50.430;6.806;2022-11-15T10:13:33;2.58;;;0.30;;
46613;SDS011;32338;50.430;6.806;2022-11-15T10:16:04;1.00;;;0.32;;
46613;SDS011;32338;50.430;6.806;2022-11-15T10:18:54;2.08;;;0.30;;
46613;SDS011;32338;50.430;6.806;2022-11-15T10:21:32;3.00;;;0.50;;
46613;SDS011;32338;50.430;6.806;2022-11-15T10:24:10;1.23;;;0.50;;
46613;SDS011;32338;50.430;6.806;2022-11-15T10:26:37;5.32;;;0.80;;
46613;SDS011;32338;50.430;6.806;2022-11-15T10:29:04;0.82;;;0.40;;
46613;SDS011;32338;50.430;6.806;2022-11-15T10:31:32;1.15;;;0.50;;
46613;SDS011;32338;50.430;6.806;2022-11-15T10:34:03;2.35;;;0.63;;
46613;SDS011;32338;50.430;6.806;2022-11-15T10:36:38;2.92;;;0.70;;
46613;SDS011;32338;50.430;6.806;2022-11-15T10:39:11;1.20;;;0.40;;
46613;SDS011;32338;50.430;6.806;2022-11-15T10:41:39;1.55;;;0.60;;
46613;SDS011;32338;50.430;6.806;2022-11-15T10:44:09;2.83;;;0.70;;
46613;SDS011;32338;50.430;6.806;2022-11-15T10:46:47;3.50;;;0.75;;
46613;SDS011;32338;50.430;6.806;2022-11-15T10:49:29;3.58;;;0.65;;
46613;SDS011;32338;50.430;6.806;2022-11-15T10:51:59;2.85;;;0.55;;
46613;SDS011;32338;50.430;6.806;2022-11-15T10:54:28;3.72;;;1.02;;
46613;SDS011;32338;50.430;6.806;2022-11-15T10:56:59;2.75;;;0.82;;
46613;SDS011;32338;50.430;6.806;2022-11-15T10:59:33;1.33;;;0.52;;
46613;SDS011;32338;50.430;6.806;2022-11-15T11:02:20;4.97;;;0.73;;
46613;SDS011;32338;50.430;6.806;2022-11-15T11:04:56;1.85;;;0.60;;
46613;SDS011;32338;50.430;6.806;2022-11-15T11:07:24;5.00;;;0.65;;
46613;SDS011;32338;50.430;6.806;2022-11-15T11:09:59;3.35;;;0.73;;
46613;SDS011;32338;50.430;6.806;2022-11-15T11:12:28;1.30;;;0.40;;
46613;SDS011;32338;50.430;6.806;2022-11-15T11:14:57;4.07;;;0.60;;
46613;SDS011;32338;50.430;6.806;2022-11-15T11:17:29;3.88;;;0.70;;
46613;SDS011;32338;50.430;6.806;2022-11-15T11:20:04;6.43;;;0.77;;
46613;SDS011;32338;50.430;6.806;2022-11-15T11:22:37;1.25;;;0.70;;
46613;SDS011;32338;50.430;6.806;2022-11-15T11:25:27;6.15;;;1.10;;
46613;SDS011;32338;50.430;6.806;2022-11-15T11:28:02;5.28;;;1.40;;
46613;SDS011;32338;50.430;6.806;2022-11-15T11:30:43;2.60;;;1.02;;
46613;SDS011;32338;50.430;6.806;2022-11-15T11:33:19;3.35;;;1.10;;
46613;SDS011;32338;50.430;6.806;2022-11-15T11:35:57;2.17;;;1.00;;
46613;SDS011;32338;50.430;6.806;2022-11-15T11:38:39;3.60;;;1.15;;
46613;SDS011;32338;50.430;6.806;2022-11-15T11:41:19;4.47;;;1.23;;
46613;SDS011;32338;50.430;6.806;2022-11-15T11:44:00;3.15;;;1.05;;
46613;SDS011;32338;50.430;6.806;2022-11-15T11:46:40;6.97;;;1.08;;
46613;SDS011;32338;50.430;6.806;2022-11-15T11:49:18;3.75;;;1.00;;
46613;SDS011;32338;50.430;6.806;2022-11-15T11:51:50;1.63;;;1.10;;
46613;SDS011;32338;50.430;6.806;2022-11-15T11:54:22;3.75;;;1.27;;
46613;SDS011;32338;50.430;6.806;2022-11-15T11:56:52;3.55;;;1.17;;
46613;SDS011;32338;50.430;6.806;2022-11-15T11:59:25;3.35;;;0.95;;
46613;SDS011;32338;50.430;6.806;2022-11-15T12:02:01;1.55;;;1.00;;
46613;SDS011;32338;50.430;6.806;2022-11-15T12:07:13;1.20;;;0.80;;
46613;SDS011;32338;50.430;6.806;2022-11-15T12:09:46;5.65;;;1.30;;
46613;SDS011;32338;50.430;6.806;2022-11-15T12:12:18;3.88;;;0.90;;
46613;SDS011;32338;50.430;6.806;2022-11-15T12:14:54;3.85;;;1.20;;
46613;SDS011;32338;50.430;6.806;2022-11-15T12:17:24;4.65;;;1.05;;
46613;SDS011;32338;50.430;6.806;2022-11-15T12:19:58;4.70;;;1.20;;
46613;SDS011;32338;50.430;6.806;2022-11-15T12:22:28;2.63;;;1.55;;
46613;SDS011;32338;50.430;6.806;2022-11-15T12:25:03;2.05;;;1.40;;
46613;SDS011;32338;50.430;6.806;2022-11-15T12:27:35;3.30;;;1.45;;
46613;SDS011;32338;50.430;6.806;2022-11-15T12:30:07;4.35;;;1.67;;
46613;SDS011;32338;50.430;6.806;2022-11-15T12:32:48;6.82;;;2.25;;
46613;SDS011;32338;50.430;6.806;2022-11-15T12:35:26;2.00;;;1.52;;
46613;SDS011;32338;50.430;6.806;2022-11-15T12:38:02;2.20;;;1.95;;
46613;SDS011;32338;50.430;6.806;2022-11-15T12:40:33;3.03;;;2.20;;
46613;SDS011;32338;50.430;6.806;2022-11-15T12:46:10;3.22;;;2.97;;
46613;SDS011;32338;50.430;6.806;2022-11-15T12:48:47;3.78;;;2.78;;
46613;SDS011;32338;50.430;6.806;2022-11-15T12:51:21;5.32;;;3.65;;
46613;SDS011;32338;50.430;6.806;2022-11-15T13:05:55;3.97;;;3.05;;
46613;SDS011;32338;50.430;6.806;2022-11-15T13:08:39;3.55;;;3.25;;
46613;SDS011;32338;50.430;6.806;2022-11-15T13:17:24;3.40;;;2.65;;
46613;SDS011;32338;50.430;6.806;2022-11-15T13:19:53;2.75;;;2.55;;
46613;SDS011;32338;50.430;6.806;2022-11-15T13:22:24;6.57;;;3.20;;
46613;SDS011;32338;50.430;6.806;2022-11-15T13:25:18;5.07;;;2.75;;
46613;SDS011;32338;50.430;6.806;2022-11-15T13:27:50;3.05;;;2.80;;
46613;SDS011;32338;50.430;6.806;2022-11-15T13:30:24;4.25;;;2.58;;
46613;SDS011;32338;50.430;6.806;2022-11-15T13:32:52;3.55;;;2.40;;
46613;SDS011;32338;50.430;6.806;2022-11-15T13:35:21;3.35;;;2.60;;
46613;SDS011;32338;50.430;6.806;2022-11-15T13:37:52;4.40;;;2.63;;
46613;SDS011;32338;50.430;6.806;2022-11-15T13:40:52;7.72;;;3.20;;
46613;SDS011;32338;50.430;6.806;2022-11-15T13:43:28;4.82;;;2.70;;
46613;SDS011;32338;50.430;6.806;2022-11-15T13:46:04;3.42;;;1.80;;
46613;SDS011;32338;50.430;6.806;2022-11-15T13:48:32;4.47;;;2.10;;
46613;SDS011;32338;50.430;6.806;2022-11-15T13:51:02;2.80;;;1.98;;
46613;SDS011;32338;50.430;6.806;2022-11-15T13:53:31;3.38;;;2.13;;
46613;SDS011;32338;50.430;6.806;2022-11-15T13:56:00;4.00;;;2.03;;
46613;SDS011;32338;50.430;6.806;2022-11-15T13:58:29;2.97;;;1.88;;
46613;SDS011;32338;50.430;6.806;2022-11-15T14:00:59;3.63;;;1.67;;
46613;SDS011;32338;50.430;6.806;2022-11-15T14:03:28;3.00;;;1.83;;
46613;SDS011;32338;50.430;6.806;2022-11-15T14:06:04;3.20;;;1.80;;
46613;SDS011;32338;50.430;6.806;2022-11-15T14:08:35;2.28;;;1.70;;
46613;SDS011;32338;50.430;6.806;2022-11-15T14:11:08;2.05;;;1.27;;
46613;SDS011;32338;50.430;6.806;2022-11-15T14:13:40;2.97;;;1.50;;
46613;SDS011;32338;50.430;6.806;2022-11-15T14:16:13;1.60;;;1.40;;
46613;SDS011;32338;50.430;6.806;2022-11-15T14:18:44;2.45;;;1.20;;
46613;SDS011;32338;50.430;6.806;2022-11-15T14:21:13;2.70;;;1.40;;
46613;SDS011;32338;50.430;6.806;2022-11-15T14:23:40;1.83;;;1.30;;
46613;SDS011;32338;50.430;6.806;2022-11-15T14:26:25;2.25;;;1.30;;
46613;SDS011;32338;50.430;6.806;2022-11-15T14:28:53;1.60;;;1.20;;
46613;SDS011;32338;50.430;6.806;2022-11-15T14:31:20;5.03;;;2.20;;
46613;SDS011;32338;50.430;6.806;2022-11-15T14:33:47;2.30;;;1.20;;
46613;SDS011;32338;50.430;6.806;2022-11-15T14:36:15;2.30;;;1.40;;
46613;SDS011;32338;50.430;6.806;2022-11-15T14:38:43;1.88;;;1.38;;
46613;SDS011;32338;50.430;6.806;2022-11-15T14:41:17;1.98;;;1.40;;
46613;SDS011;32338;50.430;6.806;2022-11-15T14:43:46;1.33;;;1.00;;
46613;SDS011;32338;50.430;6.806;2022-11-15T14:46:13;3.30;;;1.20;;
46613;SDS011;32338;50.430;6.806;2022-11-15T14:48:39;3.17;;;1.10;;
46613;SDS011;32338;50.430;6.806;2022-11-15T14:51:09;2.20;;;0.93;;
46613;SDS011;32338;50.430;6.806;2022-11-15T14:53:38;4.85;;;0.95;;
46613;SDS011;32338;50.430;6.806;2022-11-15T14:56:05;1.67;;;1.00;;
46613;SDS011;32338;50.430;6.806;2022-11-15T14:58:33;1.95;;;1.00;;
46613;SDS011;32338;50.430;6.806;2022-11-15T15:01:01;2.50;;;1.00;;
46613;SDS011;32338;50.430;6.806;2022-11-15T15:03:28;1.17;;;0.90;;
46613;SDS011;32338;50.430;6.806;2022-11-15T15:05:55;1.75;;;0.93;;
46613;SDS011;32338;50.430;6.806;2022-11-15T15:08:22;1.48;;;1.02;;
46613;SDS011;32338;50.430;6.806;2022-11-15T15:10:49;1.67;;;0.93;;
46613;SDS011;32338;50.430;6.806;2022-11-15T15:13:16;1.45;;;1.00;;
46613;SDS011;32338;50.430;6.806;2022-11-15T15:15:46;1.77;;;0.85;;
46613;SDS011;32338;50.430;6.806;2022-11-15T15:18:13;1.88;;;1.00;;
46613;SDS011;32338;50.430;6.806;2022-11-15T15:20:40;1.67;;;0.93;;
46613;SDS011;32338;50.430;6.806;2022-11-15T15:23:13;4.18;;;0.93;;
46613;SDS011;32338;50.430;6.806;2022-11-15T15:25:42;2.42;;;1.15;;
46613;SDS011;32338;50.430;6.806;2022-11-15T15:28:10;1.58;;;0.80;;
46613;SDS011;32338;50.430;6.806;2022-11-15T15:30:37;1.75;;;1.00;;
46613;SDS011;32338;50.430;6.806;2022-11-15T15:33:05;2.17;;;0.82;;
46613;SDS011;32338;50.430;6.806;2022-11-15T15:35:33;6.32;;;1.30;;
46613;SDS011;32338;50.430;6.806;2022-11-15T15:38:01;1.88;;;0.93;;
46613;SDS011;32338;50.430;6.806;2022-11-15T15:40:29;2.97;;;0.95;;